sensor_id;sensor_type;location;lat;lon;timestamp;P1;durP1;ratioP1;P2;durP2;ratioP2
70832;SDS011;71099;59.528;17.886;2023-08-24T00:00:40;2.30;;;2.08;;
70832;SDS011;71099;59.528;17.886;2023-08-24T00:03:10;2.60;;;2.08;;
70832;SDS011;71099;59.528;17.886;2023-08-24T00:05:36;2.95;;;2.00;;
70832;SDS011;71099;59.528;17.886;2023-08-24T00:08:06;3.65;;;1.90;;
70832;SDS011;71099;59.528;17.886;2023-08-24T00:10:32;4.88;;;2.30;;
70832;SDS011;71099;59.528;17.886;2023-08-24T00:12:58;4.30;;;2.08;;
70832;SDS011;71099;59.528;17.886;2023-08-24T00:15:24;4.97;;;2.20;;
70832;SDS011;71099;59.528;17.886;2023-08-24T00:17:49;3.30;;;2.20;;
70832;SDS011;71099;59.528;17.886;2023-08-24T00:20:15;6.88;;;2.20;;
70832;SDS011;71099;59.528;17.886;2023-08-24T00:22:40;3.17;;;2.53;;
70832;SDS011;71099;59.528;17.886;2023-08-24T00:25:06;3.75;;;2.53;;
70832;SDS011;71099;59.528;17.886;2023-08-24T00:27:33;2.28;;;2.05;;
70832;SDS011;71099;59.528;17.886;2023-08-24T00:29:59;3.05;;;2.22;;
70832;SDS011;71099;59.528;17.886;2023-08-24T00:32:24;5.18;;;2.53;;
70832;SDS011;71099;59.528;17.886;2023-08-24T00:34:49;4.85;;;1.80;;
70832;SDS011;71099;59.528;17.886;2023-08-24T00:37:15;4.25;;;2.22;;
70832;SDS011;71099;59.528;17.886;2023-08-24T00:39:40;5.55;;;2.15;;
70832;SDS011;71099;59.528;17.886;2023-08-24T00:42:06;4.05;;;2.88;;
70832;SDS011;71099;59.528;17.886;2023-08-24T00:44:31;5.65;;;2.38;;
70832;SDS011;71099;59.528;17.886;2023-08-24T00:46:57;4.18;;;2.22;;
70832;SDS011;71099;59.528;17.886;2023-08-24T00:49:24;3.83;;;2.10;;
70832;SDS011;71099;59.528;17.886;2023-08-24T00:51:50;3.00;;;2.17;;
70832;SDS011;71099;59.528;17.886;2023-08-24T00:54:16;4.63;;;1.90;;
70832;SDS011;71099;59.528;17.886;2023-08-24T00:56:42;2.08;;;1.88;;
70832;SDS011;71099;59.528;17.886;2023-08-24T00:59:08;3.08;;;2.20;;
70832;SDS011;71099;59.528;17.886;2023-08-24T01:01:34;2.75;;;1.83;;
70832;SDS011;71099;59.528;17.886;2023-08-24T01:03:59;6.18;;;1.70;;
70832;SDS011;71099;59.528;17.886;2023-08-24T01:06:25;3.35;;;2.47;;
70832;SDS011;71099;59.528;17.886;2023-08-24T01:08:50;4.43;;;2.15;;
70832;SDS011;71099;59.528;17.886;2023-08-24T01:16:39;3.75;;;2.17;;
70832;SDS011;71099;59.528;17.886;2023-08-24T01:19:06;3.42;;;2.15;;
70832;SDS011;71099;59.528;17.886;2023-08-24T01:21:35;4.07;;;2.00;;
70832;SDS011;71099;59.528;17.886;2023-08-24T01:24:10;4.03;;;2.28;;
70832;SDS011;71099;59.528;17.886;2023-08-24T01:26:39;4.93;;;2.03;;
70832;SDS011;71099;59.528;17.886;2023-08-24T01:29:06;4.35;;;2.13;;
70832;SDS011;71099;59.528;17.886;2023-08-24T01:31:32;3.65;;;1.83;;
70832;SDS011;71099;59.528;17.886;2023-08-24T01:33:58;5.28;;;2.10;;
70832;SDS011;71099;59.528;17.886;2023-08-24T01:36:24;3.65;;;2.00;;
70832;SDS011;71099;59.528;17.886;2023-08-24T01:39:02;2.72;;;1.70;;
70832;SDS011;71099;59.528;17.886;2023-08-24T01:44:08;4.90;;;1.83;;
70832;SDS011;71099;59.528;17.886;2023-08-24T01:46:36;6.35;;;2.38;;
70832;SDS011;71099;59.528;17.886;2023-08-24T01:49:02;4.10;;;1.88;;
70832;SDS011;71099;59.528;17.886;2023-08-24T01:51:29;4.95;;;2.10;;
70832;SDS011;71099;59.528;17.886;2023-08-24T01:53:55;3.72;;;2.00;;
70832;SDS011;71099;59.528;17.886;2023-08-24T01:56:22;4.75;;;2.00;;
70832;SDS011;71099;59.528;17.886;2023-08-24T01:58:48;4.10;;;2.10;;
70832;SDS011;71099;59.528;17.886;2023-08-24T02:01:13;4.43;;;2.33;;
70832;SDS011;71099;59.528;17.886;2023-08-24T02:03:38;5.38;;;2.42;;
70832;SDS011;71099;59.528;17.886;2023-08-24T02:06:04;2.20;;;1.98;;
70832;SDS011;71099;59.528;17.886;2023-08-24T02:08:31;3.35;;;2.40;;
70832;SDS011;71099;59.528;17.886;2023-08-24T02:10:57;2.92;;;1.70;;
70832;SDS011;71099;59.528;17.886;2023-08-24T02:13:23;2.10;;;1.92;;
70832;SDS011;71099;59.528;17.886;2023-08-24T02:15:48;5.22;;;2.63;;
70832;SDS011;71099;59.528;17.886;2023-08-24T02:18:13;2.55;;;2.00;;
70832;SDS011;71099;59.528;17.886;2023-08-24T02:20:39;3.58;;;2.20;;
70832;SDS011;71099;59.528;17.886;2023-08-24T02:23:04;7.68;;;2.33;;
70832;SDS011;71099;59.528;17.886;2023-08-24T02:25:30;2.20;;;1.75;;
70832;SDS011;71099;59.528;17.886;2023-08-24T02:27:56;5.68;;;1.98;;
70832;SDS011;71099;59.528;17.886;2023-08-24T02:30:22;4.82;;;1.90;;
70832;SDS011;71099;59.528;17.886;2023-08-24T02:32:47;2.05;;;1.77;;
70832;SDS011;71099;59.528;17.886;2023-08-24T02:35:12;2.47;;;1.95;;
70832;SDS011;71099;59.528;17.886;2023-08-24T02:37:38;1.75;;;1.65;;
70832;SDS011;71099;59.528;17.886;2023-08-24T02:40:04;3.95;;;1.90;;
70832;SDS011;71099;59.528;17.886;2023-08-24T02:42:31;2.65;;;1.90;;
70832;SDS011;71099;59.528;17.886;2023-08-24T02:44:56;2.40;;;1.55;;
70832;SDS011;71099;59.528;17.886;2023-08-24T02:47:22;2.83;;;1.83;;
70832;SDS011;71099;59.528;17.886;2023-08-24T02:49:47;2.20;;;2.00;;
70832;SDS011;71099;59.528;17.886;2023-08-24T02:52:13;6.72;;;2.75;;
70832;SDS011;71099;59.528;17.886;2023-08-24T02:54:38;1.75;;;1.65;;
70832;SDS011;71099;59.528;17.886;2023-08-24T02:57:03;3.25;;;2.45;;
70832;SDS011;71099;59.528;17.886;2023-08-24T02:59:29;2.72;;;2.45;;
70832;SDS011;71099;59.528;17.886;2023-08-24T03:01:55;6.78;;;2.28;;
70832;SDS011;71099;59.528;17.886;2023-08-24T03:04:20;2.22;;;2.03;;
70832;SDS011;71099;59.528;17.886;2023-08-24T03:06:46;3.45;;;2.20;;
70832;SDS011;71099;59.528;17.886;2023-08-24T03:09:12;4.53;;;3.20;;
70832;SDS011;71099;59.528;17.886;2023-08-24T03:11:37;4.70;;;2.30;;
70832;SDS011;71099;59.528;17.886;2023-08-24T03:14:03;5.80;;;2.30;;
70832;SDS011;71099;59.528;17.886;2023-08-24T03:16:29;2.63;;;2.15;;
70832;SDS011;71099;59.528;17.886;2023-08-24T03:18:54;3.72;;;2.05;;
70832;SDS011;71099;59.528;17.886;2023-08-24T03:21:19;4.50;;;2.58;;
70832;SDS011;71099;59.528;17.886;2023-08-24T03:23:45;7.63;;;2.72;;
70832;SDS011;71099;59.528;17.886;2023-08-24T03:26:10;2.67;;;2.28;;
70832;SDS011;71099;59.528;17.886;2023-08-24T03:28:36;3.67;;;3.17;;
70832;SDS011;71099;59.528;17.886;2023-08-24T03:31:02;2.72;;;2.38;;
70832;SDS011;71099;59.528;17.886;2023-08-24T03:33:27;4.70;;;2.13;;
70832;SDS011;71099;59.528;17.886;2023-08-24T03:35:53;8.05;;;3.47;;
70832;SDS011;71099;59.528;17.886;2023-08-24T03:38:18;2.58;;;2.25;;
70832;SDS011;71099;59.528;17.886;2023-08-24T03:40:44;7.82;;;2.72;;
70832;SDS011;71099;59.528;17.886;2023-08-24T03:43:10;4.38;;;2.67;;
70832;SDS011;71099;59.528;17.886;2023-08-24T03:45:35;7.28;;;2.88;;
70832;SDS011;71099;59.528;17.886;2023-08-24T03:48:01;5.43;;;2.35;;
70832;SDS011;71099;59.528;17.886;2023-08-24T03:50:26;5.53;;;2.50;;
70832;SDS011;71099;59.528;17.886;2023-08-24T03:52:52;3.47;;;2.65;;
70832;SDS011;71099;59.528;17.886;2023-08-24T03:55:19;3.80;;;2.50;;
70832;SDS011;71099;59.528;17.886;2023-08-24T03:57:45;3.20;;;2.45;;
70832;SDS011;71099;59.528;17.886;2023-08-24T04:00:11;6.60;;;3.08;;
70832;SDS011;71099;59.528;17.886;2023-08-24T04:02:40;4.75;;;2.67;;
70832;SDS011;71099;59.528;17.886;2023-08-24T04:05:09;8.25;;;2.92;;
70832;SDS011;71099;59.528;17.886;2023-08-24T04:07:34;4.30;;;3.10;;
70832;SDS011;71099;59.528;17.886;2023-08-24T04:10:03;3.00;;;2.72;;
70832;SDS011;71099;59.528;17.886;2023-08-24T04:12:34;8.77;;;3.10;;
70832;SDS011;71099;59.528;17.886;2023-08-24T04:15:00;8.68;;;2.65;;
70832;SDS011;71099;59.528;17.886;2023-08-24T04:17:25;5.13;;;2.78;;
70832;SDS011;71099;59.528;17.886;2023-08-24T04:19:51;4.82;;;2.88;;
70832;SDS011;71099;59.528;17.886;2023-08-24T04:22:16;6.22;;;3.30;;
70832;SDS011;71099;59.528;17.886;2023-08-24T04:24:42;2.70;;;2.47;;
70832;SDS011;71099;59.528;17.886;2023-08-24T04:27:07;5.50;;;2.47;;
70832;SDS011;71099;59.528;17.886;2023-08-24T04:29:33;4.80;;;2.88;;
70832;SDS011;71099;59.528;17.886;2023-08-24T04:31:58;4.40;;;2.25;;
70832;SDS011;71099;59.528;17.886;2023-08-24T04:34:24;4.50;;;2.72;;
70832;SDS011;71099;59.528;17.886;2023-08-24T04:36:49;7.05;;;3.05;;
70832;SDS011;71099;59.528;17.886;2023-08-24T04:39:14;8.32;;;2.80;;
70832;SDS011;71099;59.528;17.886;2023-08-24T04:41:40;5.63;;;3.00;;
70832;SDS011;71099;59.528;17.886;2023-08-24T04:44:05;4.22;;;2.72;;
70832;SDS011;71099;59.528;17.886;2023-08-24T04:46:33;7.07;;;3.03;;
70832;SDS011;71099;59.528;17.886;2023-08-24T04:48:58;12.82;;;2.35;;
70832;SDS011;71099;59.528;17.886;2023-08-24T04:51:24;4.65;;;2.72;;
70832;SDS011;71099;59.528;17.886;2023-08-24T04:53:49;6.78;;;2.53;;
70832;SDS011;71099;59.528;17.886;2023-08-24T04:56:15;5.55;;;3.03;;
70832;SDS011;71099;59.528;17.886;2023-08-24T04:58:51;8.90;;;2.67;;
70832;SDS011;71099;59.528;17.886;2023-08-24T05:01:17;5.50;;;2.80;;
70832;SDS011;71099;59.528;17.886;2023-08-24T05:03:42;4.70;;;2.55;;
70832;SDS011;71099;59.528;17.886;2023-08-24T05:06:08;5.85;;;2.47;;
70832;SDS011;71099;59.528;17.886;2023-08-24T05:08:33;7.07;;;2.60;;
70832;SDS011;71099;59.528;17.886;2023-08-24T05:10:58;11.07;;;2.95;;
70832;SDS011;71099;59.528;17.886;2023-08-24T05:13:24;3.97;;;2.67;;
70832;SDS011;71099;59.528;17.886;2023-08-24T05:15:49;3.13;;;2.13;;
70832;SDS011;71099;59.528;17.886;2023-08-24T05:18:14;6.22;;;3.35;;
70832;SDS011;71099;59.528;17.886;2023-08-24T05:20:40;4.28;;;2.40;;
70832;SDS011;71099;59.528;17.886;2023-08-24T05:23:05;4.85;;;2.78;;
70832;SDS011;71099;59.528;17.886;2023-08-24T05:25:31;4.78;;;3.20;;
70832;SDS011;71099;59.528;17.886;2023-08-24T05:27:56;6.50;;;3.72;;
70832;SDS011;71099;59.528;17.886;2023-08-24T05:30:22;6.53;;;2.67;;
70832;SDS011;71099;59.528;17.886;2023-08-24T05:32:49;6.65;;;3.03;;
70832;SDS011;71099;59.528;17.886;2023-08-24T05:35:14;9.90;;;3.30;;
70832;SDS011;71099;59.528;17.886;2023-08-24T05:37:40;8.13;;;3.60;;
70832;SDS011;71099;59.528;17.886;2023-08-24T05:40:05;4.38;;;2.50;;
70832;SDS011;71099;59.528;17.886;2023-08-24T05:42:31;8.27;;;3.03;;
70832;SDS011;71099;59.528;17.886;2023-08-24T05:44:56;6.85;;;3.22;;
70832;SDS011;71099;59.528;17.886;2023-08-24T05:47:22;9.05;;;3.05;;
70832;SDS011;71099;59.528;17.886;2023-08-24T05:49:47;4.40;;;2.35;;
70832;SDS011;71099;59.528;17.886;2023-08-24T05:52:12;9.18;;;2.97;;
70832;SDS011;71099;59.528;17.886;2023-08-24T05:54:38;6.93;;;2.53;;
70832;SDS011;71099;59.528;17.886;2023-08-24T05:57:04;7.10;;;2.72;;
70832;SDS011;71099;59.528;17.886;2023-08-24T05:59:30;5.30;;;2.95;;
70832;SDS011;71099;59.528;17.886;2023-08-24T06:01:56;8.00;;;2.95;;
70832;SDS011;71099;59.528;17.886;2023-08-24T06:04:22;8.45;;;2.95;;
70832;SDS011;71099;59.528;17.886;2023-08-24T06:06:47;5.50;;;2.63;;
70832;SDS011;71099;59.528;17.886;2023-08-24T06:09:12;6.38;;;2.70;;
70832;SDS011;71099;59.528;17.886;2023-08-24T06:11:40;7.40;;;2.97;;
70832;SDS011;71099;59.528;17.886;2023-08-24T06:14:05;6.78;;;2.35;;
70832;SDS011;71099;59.528;17.886;2023-08-24T06:16:31;7.00;;;3.08;;
70832;SDS011;71099;59.528;17.886;2023-08-24T06:18:56;7.85;;;4.15;;
70832;SDS011;71099;59.528;17.886;2023-08-24T06:21:22;5.03;;;3.00;;
70832;SDS011;71099;59.528;17.886;2023-08-24T06:23:47;5.75;;;2.85;;
70832;SDS011;71099;59.528;17.886;2023-08-24T06:26:13;10.65;;;3.38;;
70832;SDS011;71099;59.528;17.886;2023-08-24T06:28:42;4.43;;;2.75;;
70832;SDS011;71099;59.528;17.886;2023-08-24T06:31:07;7.45;;;3.17;;
70832;SDS011;71099;59.528;17.886;2023-08-24T06:33:35;4.43;;;2.70;;
70832;SDS011;71099;59.528;17.886;2023-08-24T06:36:02;18.48;;;3.08;;
70832;SDS011;71099;59.528;17.886;2023-08-24T06:38:30;12.07;;;3.45;;
70832;SDS011;71099;59.528;17.886;2023-08-24T06:40:57;6.85;;;2.85;;
70832;SDS011;71099;59.528;17.886;2023-08-24T06:43:23;6.40;;;2.72;;
70832;SDS011;71099;59.528;17.886;2023-08-24T06:45:48;7.82;;;2.85;;
70832;SDS011;71099;59.528;17.886;2023-08-24T06:48:14;6.05;;;2.92;;
70832;SDS011;71099;59.528;17.886;2023-08-24T06:50:39;7.75;;;2.75;;
70832;SDS011;71099;59.528;17.886;2023-08-24T06:53:04;9.32;;;3.65;;
70832;SDS011;71099;59.528;17.886;2023-08-24T06:55:31;4.20;;;2.80;;
70832;SDS011;71099;59.528;17.886;2023-08-24T06:57:57;9.32;;;3.00;;
70832;SDS011;71099;59.528;17.886;2023-08-24T07:00:22;9.30;;;3.58;;
70832;SDS011;71099;59.528;17.886;2023-08-24T07:02:48;8.50;;;3.05;;
70832;SDS011;71099;59.528;17.886;2023-08-24T07:05:15;7.85;;;2.90;;
70832;SDS011;71099;59.528;17.886;2023-08-24T07:07:44;8.57;;;3.03;;
70832;SDS011;71099;59.528;17.886;2023-08-24T07:10:10;4.07;;;2.55;;
70832;SDS011;71099;59.528;17.886;2023-08-24T07:12:36;4.65;;;2.85;;
70832;SDS011;71099;59.528;17.886;2023-08-24T07:15:01;7.03;;;3.03;;
70832;SDS011;71099;59.528;17.886;2023-08-24T07:17:27;7.50;;;3.05;;
70832;SDS011;71099;59.528;17.886;2023-08-24T07:19:53;6.60;;;2.80;;
70832;SDS011;71099;59.528;17.886;2023-08-24T07:22:18;9.13;;;2.72;;
70832;SDS011;71099;59.528;17.886;2023-08-24T07:24:44;6.82;;;2.78;;
70832;SDS011;71099;59.528;17.886;2023-08-24T07:27:10;7.65;;;3.03;;
70832;SDS011;71099;59.528;17.886;2023-08-24T07:29:35;7.00;;;2.78;;
70832;SDS011;71099;59.528;17.886;2023-08-24T07:32:01;5.47;;;2.35;;
70832;SDS011;71099;59.528;17.886;2023-08-24T07:34:26;8.02;;;2.58;;
70832;SDS011;71099;59.528;17.886;2023-08-24T07:36:53;7.47;;;2.47;;
70832;SDS011;71099;59.528;17.886;2023-08-24T07:39:19;5.32;;;2.58;;
70832;SDS011;71099;59.528;17.886;2023-08-24T07:41:44;6.80;;;3.35;;
70832;SDS011;71099;59.528;17.886;2023-08-24T07:44:10;4.43;;;2.50;;
70832;SDS011;71099;59.528;17.886;2023-08-24T07:46:35;8.70;;;2.72;;
70832;SDS011;71099;59.528;17.886;2023-08-24T07:49:01;12.27;;;2.75;;
70832;SDS011;71099;59.528;17.886;2023-08-24T07:51:26;4.07;;;2.28;;
70832;SDS011;71099;59.528;17.886;2023-08-24T07:53:53;6.22;;;2.35;;
70832;SDS011;71099;59.528;17.886;2023-08-24T07:56:18;6.22;;;3.15;;
70832;SDS011;71099;59.528;17.886;2023-08-24T07:58:44;7.03;;;2.25;;
70832;SDS011;71099;59.528;17.886;2023-08-24T08:01:11;8.48;;;2.17;;
70832;SDS011;71099;59.528;17.886;2023-08-24T08:03:36;5.45;;;2.30;;
70832;SDS011;71099;59.528;17.886;2023-08-24T08:06:02;7.03;;;2.05;;
70832;SDS011;71099;59.528;17.886;2023-08-24T08:08:28;3.83;;;1.50;;
70832;SDS011;71099;59.528;17.886;2023-08-24T08:10:57;6.82;;;2.13;;
70832;SDS011;71099;59.528;17.886;2023-08-24T08:13:24;4.22;;;1.80;;
70832;SDS011;71099;59.528;17.886;2023-08-24T08:15:50;2.47;;;1.70;;
70832;SDS011;71099;59.528;17.886;2023-08-24T08:18:16;3.72;;;1.80;;
70832;SDS011;71099;59.528;17.886;2023-08-24T08:20:41;8.45;;;1.83;;
70832;SDS011;71099;59.528;17.886;2023-08-24T08:23:06;5.90;;;2.28;;
70832;SDS011;71099;59.528;17.886;2023-08-24T08:25:32;6.60;;;2.20;;
70832;SDS011;71099;59.528;17.886;2023-08-24T08:27:57;5.20;;;2.05;;
70832;SDS011;71099;59.528;17.886;2023-08-24T08:30:22;6.10;;;1.90;;
70832;SDS011;71099;59.528;17.886;2023-08-24T08:32:48;6.57;;;2.22;;
70832;SDS011;71099;59.528;17.886;2023-08-24T08:35:16;3.65;;;1.85;;
70832;SDS011;71099;59.528;17.886;2023-08-24T08:37:42;6.22;;;2.55;;
70832;SDS011;71099;59.528;17.886;2023-08-24T08:40:09;5.47;;;1.80;;
70832;SDS011;71099;59.528;17.886;2023-08-24T08:42:35;3.65;;;2.00;;
70832;SDS011;71099;59.528;17.886;2023-08-24T08:45:02;4.68;;;2.58;;
70832;SDS011;71099;59.528;17.886;2023-08-24T08:47:33;5.70;;;2.20;;
70832;SDS011;71099;59.528;17.886;2023-08-24T08:49:59;5.60;;;1.85;;
70832;SDS011;71099;59.528;17.886;2023-08-24T08:52:28;5.18;;;2.33;;
70832;SDS011;71099;59.528;17.886;2023-08-24T08:54:53;5.25;;;2.13;;
70832;SDS011;71099;59.528;17.886;2023-08-24T08:57:19;5.18;;;2.33;;
70832;SDS011;71099;59.528;17.886;2023-08-24T08:59:48;5.72;;;1.90;;
70832;SDS011;71099;59.528;17.886;2023-08-24T09:02:16;6.55;;;2.15;;
70832;SDS011;71099;59.528;17.886;2023-08-24T09:04:45;5.18;;;2.58;;
70832;SDS011;71099;59.528;17.886;2023-08-24T09:07:13;8.75;;;1.63;;
70832;SDS011;71099;59.528;17.886;2023-08-24T09:09:39;6.28;;;1.75;;
70832;SDS011;71099;59.528;17.886;2023-08-24T09:12:05;6.57;;;2.38;;
70832;SDS011;71099;59.528;17.886;2023-08-24T09:14:31;4.22;;;1.45;;
70832;SDS011;71099;59.528;17.886;2023-08-24T09:16:57;5.10;;;2.92;;
70832;SDS011;71099;59.528;17.886;2023-08-24T09:19:29;6.90;;;2.00;;
70832;SDS011;71099;59.528;17.886;2023-08-24T09:22:00;6.50;;;2.30;;
70832;SDS011;71099;59.528;17.886;2023-08-24T09:24:33;5.28;;;2.42;;
70832;SDS011;71099;59.528;17.886;2023-08-24T09:27:00;8.88;;;2.13;;
70832;SDS011;71099;59.528;17.886;2023-08-24T09:29:39;5.22;;;1.90;;
70832;SDS011;71099;59.528;17.886;2023-08-24T09:32:04;7.40;;;1.70;;
70832;SDS011;71099;59.528;17.886;2023-08-24T09:34:33;2.35;;;1.65;;
70832;SDS011;71099;59.528;17.886;2023-08-24T09:36:58;4.20;;;1.58;;
70832;SDS011;71099;59.528;17.886;2023-08-24T09:39:24;3.75;;;1.70;;
70832;SDS011;71099;59.528;17.886;2023-08-24T09:41:50;5.03;;;2.38;;
70832;SDS011;71099;59.528;17.886;2023-08-24T09:44:18;5.47;;;2.60;;
70832;SDS011;71099;59.528;17.886;2023-08-24T09:46:44;2.95;;;1.95;;
70832;SDS011;71099;59.528;17.886;2023-08-24T09:49:10;3.80;;;1.90;;
70832;SDS011;71099;59.528;17.886;2023-08-24T09:51:37;3.05;;;1.20;;
70832;SDS011;71099;59.528;17.886;2023-08-24T09:54:05;4.18;;;1.38;;
70832;SDS011;71099;59.528;17.886;2023-08-24T09:56:34;5.00;;;1.70;;
70832;SDS011;71099;59.528;17.886;2023-08-24T09:59:11;8.68;;;2.38;;
70832;SDS011;71099;59.528;17.886;2023-08-24T10:01:43;5.57;;;2.33;;
70832;SDS011;71099;59.528;17.886;2023-08-24T10:04:12;6.55;;;1.90;;
70832;SDS011;71099;59.528;17.886;2023-08-24T10:06:38;6.40;;;1.98;;
70832;SDS011;71099;59.528;17.886;2023-08-24T10:09:08;3.45;;;1.65;;
70832;SDS011;71099;59.528;17.886;2023-08-24T10:11:49;3.95;;;1.90;;
70832;SDS011;71099;59.528;17.886;2023-08-24T10:14:25;5.78;;;1.83;;
70832;SDS011;71099;59.528;17.886;2023-08-24T10:16:54;4.43;;;1.75;;
70832;SDS011;71099;59.528;17.886;2023-08-24T10:19:21;6.25;;;2.38;;
70832;SDS011;71099;59.528;17.886;2023-08-24T10:21:48;5.18;;;2.67;;
70832;SDS011;71099;59.528;17.886;2023-08-24T10:24:15;4.38;;;1.48;;
70832;SDS011;71099;59.528;17.886;2023-08-24T10:26:41;6.68;;;1.73;;
70832;SDS011;71099;59.528;17.886;2023-08-24T10:29:07;4.55;;;1.85;;
70832;SDS011;71099;59.528;17.886;2023-08-24T10:31:33;5.70;;;1.90;;
70832;SDS011;71099;59.528;17.886;2023-08-24T10:34:00;8.55;;;3.67;;
70832;SDS011;71099;59.528;17.886;2023-08-24T10:36:26;12.20;;;2.60;;
70832;SDS011;71099;59.528;17.886;2023-08-24T10:38:55;5.78;;;1.98;;
70832;SDS011;71099;59.528;17.886;2023-08-24T10:41:25;8.43;;;2.22;;
70832;SDS011;71099;59.528;17.886;2023-08-24T10:43:51;4.28;;;2.17;;
70832;SDS011;71099;59.528;17.886;2023-08-24T10:46:17;7.10;;;2.80;;
70832;SDS011;71099;59.528;17.886;2023-08-24T10:56:16;8.93;;;3.30;;
70832;SDS011;71099;59.528;17.886;2023-08-24T10:58:46;7.43;;;2.60;;
70832;SDS011;71099;59.528;17.886;2023-08-24T11:01:16;6.65;;;3.28;;
70832;SDS011;71099;59.528;17.886;2023-08-24T11:03:50;5.97;;;2.78;;
70832;SDS011;71099;59.528;17.886;2023-08-24T11:06:21;3.50;;;2.17;;
70832;SDS011;71099;59.528;17.886;2023-08-24T11:08:49;2.95;;;2.38;;
70832;SDS011;71099;59.528;17.886;2023-08-24T11:11:21;3.53;;;2.03;;
70832;SDS011;71099;59.528;17.886;2023-08-24T11:16:42;9.98;;;3.75;;
70832;SDS011;71099;59.528;17.886;2023-08-24T11:19:11;3.38;;;2.53;;
70832;SDS011;71099;59.528;17.886;2023-08-24T11:21:41;6.85;;;2.58;;
70832;SDS011;71099;59.528;17.886;2023-08-24T11:24:08;8.80;;;2.33;;
70832;SDS011;71099;59.528;17.886;2023-08-24T11:26:38;4.07;;;2.00;;
70832;SDS011;71099;59.528;17.886;2023-08-24T11:29:05;7.18;;;2.58;;
70832;SDS011;71099;59.528;17.886;2023-08-24T11:31:31;5.20;;;2.50;;
70832;SDS011;71099;59.528;17.886;2023-08-24T11:33:58;6.72;;;2.00;;
70832;SDS011;71099;59.528;17.886;2023-08-24T11:36:23;3.00;;;2.25;;
70832;SDS011;71099;59.528;17.886;2023-08-24T11:38:51;4.75;;;2.20;;
70832;SDS011;71099;59.528;17.886;2023-08-24T11:41:18;4.43;;;2.15;;
70832;SDS011;71099;59.528;17.886;2023-08-24T11:43:46;7.20;;;1.98;;
70832;SDS011;71099;59.528;17.886;2023-08-24T11:46:15;3.22;;;1.55;;
70832;SDS011;71099;59.528;17.886;2023-08-24T11:48:44;5.72;;;1.75;;
70832;SDS011;71099;59.528;17.886;2023-08-24T11:51:11;5.32;;;2.10;;
70832;SDS011;71099;59.528;17.886;2023-08-24T11:53:40;3.33;;;2.00;;
70832;SDS011;71099;59.528;17.886;2023-08-24T11:56:08;2.03;;;1.48;;
70832;SDS011;71099;59.528;17.886;2023-08-24T11:58:37;3.00;;;1.33;;
70832;SDS011;71099;59.528;17.886;2023-08-24T12:01:03;5.72;;;1.17;;
70832;SDS011;71099;59.528;17.886;2023-08-24T12:03:29;4.32;;;1.20;;
70832;SDS011;71099;59.528;17.886;2023-08-24T12:05:58;0.95;;;0.90;;
70832;SDS011;71099;59.528;17.886;2023-08-24T12:08:25;2.90;;;1.30;;
70832;SDS011;71099;59.528;17.886;2023-08-24T12:10:50;5.72;;;1.98;;
70832;SDS011;71099;59.528;17.886;2023-08-24T12:13:16;3.53;;;1.20;;
70832;SDS011;71099;59.528;17.886;2023-08-24T12:15:41;4.13;;;1.25;;
70832;SDS011;71099;59.528;17.886;2023-08-24T12:18:10;2.70;;;0.98;;
70832;SDS011;71099;59.528;17.886;2023-08-24T12:20:37;4.53;;;2.00;;
70832;SDS011;71099;59.528;17.886;2023-08-24T12:23:02;3.80;;;1.48;;
70832;SDS011;71099;59.528;17.886;2023-08-24T12:25:28;5.32;;;1.77;;
70832;SDS011;71099;59.528;17.886;2023-08-24T12:35:48;3.03;;;1.17;;
70832;SDS011;71099;59.528;17.886;2023-08-24T12:38:13;4.75;;;1.60;;
70832;SDS011;71099;59.528;17.886;2023-08-24T12:40:38;4.38;;;1.00;;
70832;SDS011;71099;59.528;17.886;2023-08-24T12:43:04;6.18;;;1.92;;
70832;SDS011;71099;59.528;17.886;2023-08-24T12:45:29;5.70;;;1.20;;
70832;SDS011;71099;59.528;17.886;2023-08-24T12:47:55;4.07;;;1.50;;
70832;SDS011;71099;59.528;17.886;2023-08-24T12:50:20;5.78;;;2.05;;
70832;SDS011;71099;59.528;17.886;2023-08-24T12:52:46;2.67;;;1.23;;
70832;SDS011;71099;59.528;17.886;2023-08-24T12:55:11;9.23;;;1.92;;
70832;SDS011;71099;59.528;17.886;2023-08-24T12:57:36;2.72;;;1.90;;
70832;SDS011;71099;59.528;17.886;2023-08-24T13:00:02;3.17;;;1.85;;
70832;SDS011;71099;59.528;17.886;2023-08-24T13:02:28;2.97;;;1.10;;
70832;SDS011;71099;59.528;17.886;2023-08-24T13:04:54;4.10;;;1.48;;
70832;SDS011;71099;59.528;17.886;2023-08-24T13:07:20;4.55;;;1.30;;
70832;SDS011;71099;59.528;17.886;2023-08-24T13:09:46;3.42;;;1.33;;
70832;SDS011;71099;59.528;17.886;2023-08-24T13:12:11;3.05;;;1.10;;
70832;SDS011;71099;59.528;17.886;2023-08-24T13:14:36;5.55;;;1.65;;
70832;SDS011;71099;59.528;17.886;2023-08-24T13:17:02;2.97;;;1.10;;
70832;SDS011;71099;59.528;17.886;2023-08-24T13:19:27;2.90;;;1.30;;
70832;SDS011;71099;59.528;17.886;2023-08-24T13:21:54;2.15;;;1.30;;
70832;SDS011;71099;59.528;17.886;2023-08-24T13:24:19;4.20;;;1.27;;
70832;SDS011;71099;59.528;17.886;2023-08-24T13:26:44;2.40;;;1.00;;
70832;SDS011;71099;59.528;17.886;2023-08-24T13:29:10;2.53;;;1.20;;
70832;SDS011;71099;59.528;17.886;2023-08-24T13:31:36;3.28;;;0.98;;
70832;SDS011;71099;59.528;17.886;2023-08-24T13:34:01;2.03;;;1.10;;
70832;SDS011;71099;59.528;17.886;2023-08-24T13:36:29;3.80;;;1.50;;
70832;SDS011;71099;59.528;17.886;2023-08-24T13:38:55;3.33;;;1.20;;
70832;SDS011;71099;59.528;17.886;2023-08-24T13:41:20;2.05;;;0.80;;
70832;SDS011;71099;59.528;17.886;2023-08-24T13:43:45;4.70;;;1.42;;
70832;SDS011;71099;59.528;17.886;2023-08-24T13:46:11;1.95;;;1.20;;
70832;SDS011;71099;59.528;17.886;2023-08-24T13:48:36;4.68;;;1.52;;
70832;SDS011;71099;59.528;17.886;2023-08-24T13:51:02;5.13;;;1.33;;
70832;SDS011;71099;59.528;17.886;2023-08-24T13:53:27;4.15;;;1.42;;
70832;SDS011;71099;59.528;17.886;2023-08-24T13:55:52;5.15;;;1.20;;
70832;SDS011;71099;59.528;17.886;2023-08-24T13:58:18;3.85;;;1.05;;
70832;SDS011;71099;59.528;17.886;2023-08-24T14:00:43;2.35;;;1.10;;
70832;SDS011;71099;59.528;17.886;2023-08-24T14:03:09;3.03;;;1.65;;
70832;SDS011;71099;59.528;17.886;2023-08-24T14:05:38;2.35;;;1.33;;
70832;SDS011;71099;59.528;17.886;2023-08-24T14:08:04;5.50;;;1.33;;
70832;SDS011;71099;59.528;17.886;2023-08-24T14:10:30;2.80;;;1.25;;
70832;SDS011;71099;59.528;17.886;2023-08-24T14:12:56;6.03;;;1.30;;
70832;SDS011;71099;59.528;17.886;2023-08-24T14:15:21;5.28;;;2.45;;
70832;SDS011;71099;59.528;17.886;2023-08-24T14:17:46;3.33;;;1.00;;
70832;SDS011;71099;59.528;17.886;2023-08-24T14:20:12;2.15;;;1.00;;
70832;SDS011;71099;59.528;17.886;2023-08-24T14:22:37;2.90;;;1.20;;
70832;SDS011;71099;59.528;17.886;2023-08-24T14:25:03;4.20;;;1.15;;
70832;SDS011;71099;59.528;17.886;2023-08-24T14:27:29;3.08;;;0.95;;
70832;SDS011;71099;59.528;17.886;2023-08-24T14:29:54;5.60;;;2.00;;
70832;SDS011;71099;59.528;17.886;2023-08-24T14:32:20;3.40;;;1.92;;
70832;SDS011;71099;59.528;17.886;2023-08-24T14:34:48;4.97;;;1.55;;
70832;SDS011;71099;59.528;17.886;2023-08-24T14:37:14;7.20;;;1.23;;
70832;SDS011;71099;59.528;17.886;2023-08-24T14:39:39;5.68;;;1.08;;
70832;SDS011;71099;59.528;17.886;2023-08-24T14:42:04;5.30;;;1.60;;
70832;SDS011;71099;59.528;17.886;2023-08-24T14:44:30;3.85;;;1.38;;
70832;SDS011;71099;59.528;17.886;2023-08-24T14:46:55;2.38;;;1.02;;
70832;SDS011;71099;59.528;17.886;2023-08-24T14:49:21;4.63;;;1.48;;
70832;SDS011;71099;59.528;17.886;2023-08-24T14:51:47;3.33;;;1.40;;
70832;SDS011;71099;59.528;17.886;2023-08-24T14:54:12;3.70;;;1.50;;